Brilliance Of The Seas — C6SJ5 — position and weather

sailwx.info

Track history (hours):
 
Tides and Currents Weather Stations Pressure Air Temp Water Temp Dewpoint Dewpoint Depression Visibility Wind Speed Wind Dir Waves Ship Positions

Brilliance Of The Seas

Operator: Royal Caribbean Cruises Ltd

Last reported at 2017-May-23 04:22 UTC. Time now 2017-May-23 04:51 UTC.
Position N 35°54' E 014°31'.

Type: Ship. MMSI: 311361000.

Date/timePositionNaut miles runAvg speedWind from/ knotsBaromVisibWave heightAir tempDewpointWater temp
2017-May-23 04:22N 35°54' E 014°31'3 8.8
2017-May-23 04:00N 35°56' E 014°34'713.1
2017-May-23 03:30N 35°59' E 014°41'714.5
2017-May-23 03:00N 36°03' E 014°48'714.4
2017-May-23 02:30N 36°04' E 014°57'714.3
2017-May-23 02:00N 36°03' E 015°06'714.1
2017-May-23 01:29N 36°04' E 015°15'1570241.5
2017-May-22 19:00N 36°00' W 017°06'1694847.0 350 / 51019.0 5.4 19.017.520.0
2017-May-22 17:00N 36°00' E 017°48'18012.8 350 / 71018.227.0 20.2 20.0
2017-May-22 03:00N 35°54' E 021°30'5819.4 350 / 171011.627.0 18.6 20.0
2017-May-22 00:00N 35°54' E 022°42'2265453.1 320 / 321010.010.8 18.0 20.0
2017-May-21 19:00N 36°12' W 024°00'2369592.4 260 / 231008.0 5.4 19.017.519.0
2017-May-21 15:00N 36°24' E 025°00'16 1.0 250 / 251009.110.8 19.7 20.0
2017-May-21 00:00N 36°18' E 024°42'51 9.3 270 / 241013.010.8 19.0 20.0
2017-May-20 18:30N 37°08' E 024°53'4 7.4
2017-May-20 18:00N 37°12' E 024°55'4 7.4
2017-May-20 17:31N 37°15' E 024°56'4 8.1
2017-May-20 17:00N 37°18' E 024°60'7457.1
2017-May-20 17:00N 37°12' E 024°54'1321.2 160 / 71016.0 5.4 20.018.520.0
2017-May-20 16:22N 37°21' E 025°05'3 8.9
2017-May-20 16:00N 37°24' E 025°08'4 8.7
2017-May-20 15:30N 37°27' E 025°12'5 9.4
2017-May-20 15:01N 37°28' E 025°18'1 2.5
2017-May-20 14:30N 37°28' E 025°19'0 0.0
2017-May-20 13:30N 37°28' E 025°19'0 0.0
2017-May-20 13:00N 37°28' E 025°19'0 0.0
2017-May-20 12:30N 37°28' E 025°19'0 0.0
2017-May-20 12:00N 37°28' E 025°19'0 0.0
2017-May-20 11:30N 37°28' E 025°19'0 0.0
2017-May-20 11:00N 37°28' E 025°19'0 0.0
2017-May-20 10:30N 37°28' E 025°19'0 0.0
2017-May-20 10:00N 37°28' E 025°19'0 0.0
2017-May-20 09:30N 37°28' E 025°19'0 0.0
2017-May-20 09:00N 37°28' E 025°19'0 0.0
2017-May-20 08:30N 37°28' E 025°19'0 0.0
2017-May-20 08:00N 37°28' E 025°19'0 0.0
2017-May-20 07:30N 37°28' E 025°19'0 0.0
2017-May-20 07:00N 37°28' E 025°19'0 0.0
2017-May-20 06:30N 37°28' E 025°19'0 0.0
2017-May-20 06:00N 37°28' E 025°19'0 0.0
2017-May-20 05:30N 37°28' E 025°19'0 0.0
2017-May-20 05:00N 37°28' E 025°19'0 0.0
2017-May-20 04:30N 37°28' E 025°19'0 0.0
2017-May-20 04:00N 37°28' E 025°19'0 0.4
2017-May-20 03:30N 37°28' E 025°19'2 4.9
2017-May-20 03:00N 37°28' E 025°16'4 8.9
2017-May-20 02:30N 37°29' E 025°11'5 9.2
2017-May-20 02:00N 37°31' E 025°05'6 9.4
2017-May-20 01:20N 37°32' E 024°58'5 9.3
2017-May-20 00:48N 37°33' E 024°51'3 9.7
2017-May-20 00:30N 37°33' E 024°48'1428.1
2017-May-20 00:00N 37°30' E 024°30'38 5.8 340 / 131018.010.8 18.0 18.0
2017-May-19 17:22N 37°38' E 023°43'3 9.8
2017-May-19 17:01N 37°41' E 023°41'5 9.7
2017-May-19 16:30N 37°46' E 023°39'5 9.8
2017-May-19 16:01N 37°50' E 023°36'510.0
2017-May-19 15:31N 37°55' E 023°37'2 3.0
2017-May-19 15:00N 37°56' E 023°38'0 0.0
2017-May-19 14:00N 37°56' E 023°38'0 0.0
2017-May-19 13:30N 37°56' E 023°38'0 0.0
2017-May-19 13:00N 37°56' E 023°38'0 0.0
2017-May-19 12:27N 37°56' E 023°38'0 0.0
2017-May-19 12:00N 37°56' E 023°38'0 0.0
2017-May-19 11:30N 37°56' E 023°38'0 0.0
2017-May-19 11:00N 37°56' E 023°38'0 0.0
2017-May-19 10:30N 37°56' E 023°38'0 0.0
2017-May-19 09:57N 37°56' E 023°38'0 0.0
2017-May-19 09:27N 37°56' E 023°38'0 0.0
2017-May-19 09:00N 37°56' E 023°38'0 0.0
2017-May-19 08:30N 37°56' E 023°38'0 0.0
2017-May-19 08:00N 37°56' E 023°38'0 0.0
2017-May-19 07:27N 37°56' E 023°38'0 0.0
2017-May-19 07:00N 37°56' E 023°38'0 0.0
2017-May-19 06:30N 37°56' E 023°38'0 0.0
2017-May-19 05:57N 37°56' E 023°38'0 0.0
2017-May-19 05:30N 37°56' E 023°38'0 0.0
2017-May-19 05:00N 37°56' E 023°38'0 0.0
2017-May-19 04:30N 37°56' E 023°38'0 0.0
2017-May-19 04:00N 37°56' E 023°38'0 0.0
2017-May-19 03:30N 37°56' E 023°38'0 0.0
2017-May-19 03:00N 37°56' E 023°38'0 0.0
2017-May-19 02:30N 37°56' E 023°38'0 0.7
2017-May-19 02:01N 37°56' E 023°38'3 5.3
2017-May-19 01:30N 37°54' E 023°38'4 8.6
2017-May-19 01:00N 37°50' E 023°40'714.7
2017-May-19 00:30N 37°43' E 023°44'714.4
2017-May-19 00:00N 37°36' E 023°46'28012.2
2017-May-18 01:00N 37°12' E 017°54'8613.8 320 / 201015.010.8 19.0 20.0
2017-May-17 18:47N 37°41' E 016°12'2014.3
2017-May-17 17:24N 37°48' E 015°49'514.1
2017-May-17 17:00N 37°50' E 015°42'714.7
2017-May-17 16:30N 37°53' E 015°34'815.1
2017-May-17 16:00N 38°01' E 015°33'815.2
2017-May-17 15:31N 38°08' E 015°35'3 7.0
2017-May-17 15:00N 38°12' E 015°34'3 3.0
2017-May-17 14:00N 38°14' E 015°36'713.0
2017-May-17 13:30N 38°20' E 015°40'917.8
2017-May-17 13:00N 38°28' E 015°35'1317.6
2017-May-17 12:16N 38°39' E 015°28'517.2
2017-May-17 12:00N 38°44' E 015°25'16914.0
2017-May-17 00:00N 40°36' E 012°42'152 6.3 060 / 61018.010.8 21.0 20.0
2017-May-15 23:47N 42°13' E 010°06'920.3
2017-May-15 23:19N 42°19' E 009°57'1719.9
2017-May-15 22:29N 42°34' E 009°47'1020.3
2017-May-15 22:00N 42°43' E 009°44'1020.4
2017-May-15 21:30N 42°53' E 009°39'1020.4
2017-May-15 21:00N 43°02' E 009°35'1020.4
2017-May-15 20:30N 43°12' E 009°31'1019.8
2017-May-15 20:00N 43°22' E 009°30'1020.0
2017-May-15 19:30N 43°32' E 009°34'1020.0
2017-May-15 19:00N 43°41' E 009°38'1020.0
2017-May-15 18:30N 43°51' E 009°42'917.5
2017-May-15 18:00N 43°58' E 009°48'612.1
2017-May-15 17:31N 44°04' E 009°51'3 4.8
2017-May-15 16:59N 44°06' E 009°50'0 0.0
2017-May-15 16:29N 44°06' E 009°50'0 0.0
2017-May-15 15:59N 44°06' E 009°50'0 0.0
2017-May-15 15:29N 44°06' E 009°50'0 0.0
2017-May-15 14:59N 44°06' E 009°50'0 0.0
2017-May-15 14:29N 44°06' E 009°50'0 0.0
2017-May-15 13:23N 44°06' E 009°50'0 0.0
2017-May-15 12:59N 44°06' E 009°50'0 0.0
2017-May-15 12:29N 44°06' E 009°50'0 0.0
2017-May-15 11:56N 44°06' E 009°50'0 0.0
2017-May-15 11:29N 44°06' E 009°50'0 0.0
2017-May-15 10:59N 44°06' E 009°50'0 0.0
2017-May-15 10:29N 44°06' E 009°50'0 0.0
2017-May-15 09:59N 44°06' E 009°50'0 0.0
2017-May-15 09:29N 44°06' E 009°50'0 0.0
2017-May-15 08:59N 44°06' E 009°50'0 0.0
2017-May-15 08:26N 44°06' E 009°50'0 0.0
2017-May-15 07:56N 44°06' E 009°50'0 0.0
2017-May-15 07:29N 44°06' E 009°50'0 0.0
2017-May-15 06:59N 44°06' E 009°50'0 0.0
2017-May-15 06:29N 44°06' E 009°50'0 0.0
2017-May-15 05:59N 44°06' E 009°50'0 0.0
2017-May-15 05:29N 44°06' E 009°50'0 0.0
2017-May-15 04:59N 44°06' E 009°50'0 0.7
2017-May-15 04:30N 44°06' E 009°50'3 6.8
2017-May-15 04:00N 44°03' E 009°52'5 9.2
2017-May-15 03:30N 43°59' E 009°56'611.5
2017-May-15 03:00N 43°57' E 009°48'612.6
2017-May-15 02:30N 43°56' E 009°40'612.9
2017-May-15 02:01N 43°55' E 009°31'612.9
2017-May-15 01:30N 43°55' E 009°22'613.0
2017-May-15 01:00N 43°54' E 009°13'713.2
2017-May-15 00:31N 43°53' E 009°04'713.4
2017-May-15 00:00N 43°50' E 008°55'713.3
2017-May-14 23:30N 43°48' E 008°47'713.2
2017-May-14 23:00N 43°46' E 008°38'713.1
2017-May-14 22:30N 43°43' E 008°30'713.0
2017-May-14 22:00N 43°41' E 008°21'2012.8
2017-May-14 20:25N 43°34' E 007°55'512.3
2017-May-14 20:00N 43°33' E 007°48'612.2
2017-May-14 19:29N 43°31' E 007°39'612.5
2017-May-14 19:00N 43°30' E 007°31'612.7
2017-May-14 18:30N 43°29' E 007°23'712.8
2017-May-14 17:59N 43°29' E 007°14'613.0
2017-May-14 17:30N 43°28' E 007°05'4 9.0
2017-May-14 17:00N 43°31' E 006°60'2 3.0
2017-May-14 16:31N 43°32' E 007°01'0 0.0
2017-May-14 16:00N 43°32' E 007°01'0 0.0
2017-May-14 15:30N 43°32' E 007°01'0 0.0
2017-May-14 15:01N 43°32' E 007°01'0 0.0
2017-May-14 14:25N 43°32' E 007°01'0 0.0
2017-May-14 13:25N 43°32' E 007°01'0 0.0
2017-May-14 12:54N 43°32' E 007°01'0 0.0
2017-May-14 12:31N 43°32' E 007°01'0 0.0
2017-May-14 12:01N 43°32' E 007°01'0 0.0
2017-May-14 11:28N 43°32' E 007°01'0 0.0
2017-May-14 11:01N 43°32' E 007°01'0 0.0
2017-May-14 10:31N 43°32' E 007°01'0 0.0
2017-May-14 09:46N 43°32' E 007°01'0 0.0
2017-May-14 09:27N 43°32' E 007°01'0 0.0
2017-May-14 09:01N 43°32' E 007°01'0 0.0
2017-May-14 08:31N 43°32' E 007°01'0 0.0
2017-May-14 07:58N 43°32' E 007°01'0 0.0
2017-May-14 07:30N 43°32' E 007°01'0 0.0
2017-May-14 07:00N 43°32' E 007°01'0 0.0
2017-May-14 06:24N 43°32' E 007°01'0 0.1
2017-May-14 05:58N 43°32' E 007°01'0 0.1
2017-May-14 05:30N 43°32' E 007°01'2 4.5
2017-May-14 05:01N 43°30' E 007°00'7216.6
2017-May-14 00:41N 42°39' E 005°50'3718.5
2017-May-13 22:42N 42°21' E 005°07'13622.2
2017-May-13 16:36N 41°18' E 002°26'419.3
2017-May-13 16:23N 41°16' E 002°21'616.8
2017-May-13 16:00N 41°15' E 002°13'  
Track history (hours):
 
Tides and Currents Weather Stations Pressure Air Temp Water Temp Dewpoint Dewpoint Depression Visibility Wind Speed Wind Dir Waves Ship Positions

Brilliance Of The Seas

Operator: Royal Caribbean Cruises Ltd

Last reported at 2017-May-23 04:22 UTC. Time now 2017-May-23 04:51 UTC.
Position N 35°54' E 014°31'.

Type: Ship. MMSI: 311361000.

Date/timePositionNaut miles runAvg speedWind from/ knotsBaromVisibWave heightAir tempDewpointWater temp
2017-May-23 04:22N 35°54' E 014°31'3 8.8
2017-May-23 04:00N 35°56' E 014°34'713.1
2017-May-23 03:30N 35°59' E 014°41'714.5
2017-May-23 03:00N 36°03' E 014°48'714.4
2017-May-23 02:30N 36°04' E 014°57'714.3
2017-May-23 02:00N 36°03' E 015°06'714.1
2017-May-23 01:29N 36°04' E 015°15'1570241.5
2017-May-22 19:00N 36°00' W 017°06'1694847.0 350 / 51019.0 5.4 19.017.520.0
2017-May-22 17:00N 36°00' E 017°48'18012.8 350 / 71018.227.0 20.2 20.0
2017-May-22 03:00N 35°54' E 021°30'5819.4 350 / 171011.627.0 18.6 20.0
2017-May-22 00:00N 35°54' E 022°42'2265453.1 320 / 321010.010.8 18.0 20.0
2017-May-21 19:00N 36°12' W 024°00'2369592.4 260 / 231008.0 5.4 19.017.519.0
2017-May-21 15:00N 36°24' E 025°00'16 1.0 250 / 251009.110.8 19.7 20.0
2017-May-21 00:00N 36°18' E 024°42'51 9.3 270 / 241013.010.8 19.0 20.0
2017-May-20 18:30N 37°08' E 024°53'4 7.4
2017-May-20 18:00N 37°12' E 024°55'4 7.4
2017-May-20 17:31N 37°15' E 024°56'4 8.1
2017-May-20 17:00N 37°18' E 024°60'7457.1
2017-May-20 17:00N 37°12' E 024°54'1321.2 160 / 71016.0 5.4 20.018.520.0
2017-May-20 16:22N 37°21' E 025°05'3 8.9
2017-May-20 16:00N 37°24' E 025°08'4 8.7
2017-May-20 15:30N 37°27' E 025°12'5 9.4
2017-May-20 15:01N 37°28' E 025°18'1 2.5
2017-May-20 14:30N 37°28' E 025°19'0 0.0
2017-May-20 13:30N 37°28' E 025°19'0 0.0
2017-May-20 13:00N 37°28' E 025°19'0 0.0
2017-May-20 12:30N 37°28' E 025°19'0 0.0
2017-May-20 12:00N 37°28' E 025°19'0 0.0
2017-May-20 11:30N 37°28' E 025°19'0 0.0
2017-May-20 11:00N 37°28' E 025°19'0 0.0
2017-May-20 10:30N 37°28' E 025°19'0 0.0
2017-May-20 10:00N 37°28' E 025°19'0 0.0
2017-May-20 09:30N 37°28' E 025°19'0 0.0
2017-May-20 09:00N 37°28' E 025°19'0 0.0
2017-May-20 08:30N 37°28' E 025°19'0 0.0
2017-May-20 08:00N 37°28' E 025°19'0 0.0
2017-May-20 07:30N 37°28' E 025°19'0 0.0
2017-May-20 07:00N 37°28' E 025°19'0 0.0
2017-May-20 06:30N 37°28' E 025°19'0 0.0
2017-May-20 06:00N 37°28' E 025°19'0 0.0
2017-May-20 05:30N 37°28' E 025°19'0 0.0
2017-May-20 05:00N 37°28' E 025°19'0 0.0
2017-May-20 04:30N 37°28' E 025°19'0 0.0
2017-May-20 04:00N 37°28' E 025°19'0 0.4
2017-May-20 03:30N 37°28' E 025°19'2 4.9
2017-May-20 03:00N 37°28' E 025°16'4 8.9
2017-May-20 02:30N 37°29' E 025°11'5 9.2
2017-May-20 02:00N 37°31' E 025°05'6 9.4
2017-May-20 01:20N 37°32' E 024°58'5 9.3
2017-May-20 00:48N 37°33' E 024°51'3 9.7
2017-May-20 00:30N 37°33' E 024°48'1428.1
2017-May-20 00:00N 37°30' E 024°30'38 5.8 340 / 131018.010.8 18.0 18.0
2017-May-19 17:22N 37°38' E 023°43'3 9.8
2017-May-19 17:01N 37°41' E 023°41'5 9.7
2017-May-19 16:30N 37°46' E 023°39'5 9.8
2017-May-19 16:01N 37°50' E 023°36'510.0
2017-May-19 15:31N 37°55' E 023°37'2 3.0
2017-May-19 15:00N 37°56' E 023°38'0 0.0
2017-May-19 14:00N 37°56' E 023°38'0 0.0
2017-May-19 13:30N 37°56' E 023°38'0 0.0
2017-May-19 13:00N 37°56' E 023°38'0 0.0
2017-May-19 12:27N 37°56' E 023°38'0 0.0
2017-May-19 12:00N 37°56' E 023°38'0 0.0
2017-May-19 11:30N 37°56' E 023°38'0 0.0
2017-May-19 11:00N 37°56' E 023°38'0 0.0
2017-May-19 10:30N 37°56' E 023°38'0 0.0
2017-May-19 09:57N 37°56' E 023°38'0 0.0
2017-May-19 09:27N 37°56' E 023°38'0 0.0
2017-May-19 09:00N 37°56' E 023°38'0 0.0
2017-May-19 08:30N 37°56' E 023°38'0 0.0
2017-May-19 08:00N 37°56' E 023°38'0 0.0
2017-May-19 07:27N 37°56' E 023°38'0 0.0
2017-May-19 07:00N 37°56' E 023°38'0 0.0
2017-May-19 06:30N 37°56' E 023°38'0 0.0
2017-May-19 05:57N 37°56' E 023°38'0 0.0
2017-May-19 05:30N 37°56' E 023°38'0 0.0
2017-May-19 05:00N 37°56' E 023°38'0 0.0
2017-May-19 04:30N 37°56' E 023°38'0 0.0
2017-May-19 04:00N 37°56' E 023°38'0 0.0
2017-May-19 03:30N 37°56' E 023°38'0 0.0
2017-May-19 03:00N 37°56' E 023°38'0 0.0
2017-May-19 02:30N 37°56' E 023°38'0 0.7
2017-May-19 02:01N 37°56' E 023°38'3 5.3
2017-May-19 01:30N 37°54' E 023°38'4 8.6
2017-May-19 01:00N 37°50' E 023°40'714.7
2017-May-19 00:30N 37°43' E 023°44'714.4
2017-May-19 00:00N 37°36' E 023°46'28012.2
2017-May-18 01:00N 37°12' E 017°54'8613.8 320 / 201015.010.8 19.0 20.0
2017-May-17 18:47N 37°41' E 016°12'2014.3
2017-May-17 17:24N 37°48' E 015°49'514.1
2017-May-17 17:00N 37°50' E 015°42'714.7
2017-May-17 16:30N 37°53' E 015°34'815.1
2017-May-17 16:00N 38°01' E 015°33'815.2
2017-May-17 15:31N 38°08' E 015°35'3 7.0
2017-May-17 15:00N 38°12' E 015°34'3 3.0
2017-May-17 14:00N 38°14' E 015°36'713.0
2017-May-17 13:30N 38°20' E 015°40'917.8
2017-May-17 13:00N 38°28' E 015°35'1317.6
2017-May-17 12:16N 38°39' E 015°28'517.2
2017-May-17 12:00N 38°44' E 015°25'16914.0
2017-May-17 00:00N 40°36' E 012°42'152 6.3 060 / 61018.010.8 21.0 20.0
2017-May-15 23:47N 42°13' E 010°06'920.3
2017-May-15 23:19N 42°19' E 009°57'1719.9
2017-May-15 22:29N 42°34' E 009°47'1020.3
2017-May-15 22:00N 42°43' E 009°44'1020.4
2017-May-15 21:30N 42°53' E 009°39'1020.4
2017-May-15 21:00N 43°02' E 009°35'1020.4
2017-May-15 20:30N 43°12' E 009°31'1019.8
2017-May-15 20:00N 43°22' E 009°30'1020.0
2017-May-15 19:30N 43°32' E 009°34'1020.0
2017-May-15 19:00N 43°41' E 009°38'1020.0
2017-May-15 18:30N 43°51' E 009°42'917.5
2017-May-15 18:00N 43°58' E 009°48'612.1
2017-May-15 17:31N 44°04' E 009°51'3 4.8
2017-May-15 16:59N 44°06' E 009°50'0 0.0
2017-May-15 16:29N 44°06' E 009°50'0 0.0
2017-May-15 15:59N 44°06' E 009°50'0 0.0
2017-May-15 15:29N 44°06' E 009°50'0 0.0
2017-May-15 14:59N 44°06' E 009°50'0 0.0
2017-May-15 14:29N 44°06' E 009°50'0 0.0
2017-May-15 13:23N 44°06' E 009°50'0 0.0
2017-May-15 12:59N 44°06' E 009°50'0 0.0
2017-May-15 12:29N 44°06' E 009°50'0 0.0
2017-May-15 11:56N 44°06' E 009°50'0 0.0
2017-May-15 11:29N 44°06' E 009°50'0 0.0
2017-May-15 10:59N 44°06' E 009°50'0 0.0
2017-May-15 10:29N 44°06' E 009°50'0 0.0
2017-May-15 09:59N 44°06' E 009°50'0 0.0
2017-May-15 09:29N 44°06' E 009°50'0 0.0
2017-May-15 08:59N 44°06' E 009°50'0 0.0
2017-May-15 08:26N 44°06' E 009°50'0 0.0
2017-May-15 07:56N 44°06' E 009°50'0 0.0
2017-May-15 07:29N 44°06' E 009°50'0 0.0
2017-May-15 06:59N 44°06' E 009°50'0 0.0
2017-May-15 06:29N 44°06' E 009°50'0 0.0
2017-May-15 05:59N 44°06' E 009°50'0 0.0
2017-May-15 05:29N 44°06' E 009°50'0 0.0
2017-May-15 04:59N 44°06' E 009°50'0 0.7
2017-May-15 04:30N 44°06' E 009°50'3 6.8
2017-May-15 04:00N 44°03' E 009°52'5 9.2
2017-May-15 03:30N 43°59' E 009°56'611.5
2017-May-15 03:00N 43°57' E 009°48'612.6
2017-May-15 02:30N 43°56' E 009°40'612.9
2017-May-15 02:01N 43°55' E 009°31'612.9
2017-May-15 01:30N 43°55' E 009°22'613.0
2017-May-15 01:00N 43°54' E 009°13'713.2
2017-May-15 00:31N 43°53' E 009°04'713.4
2017-May-15 00:00N 43°50' E 008°55'713.3
2017-May-14 23:30N 43°48' E 008°47'713.2
2017-May-14 23:00N 43°46' E 008°38'713.1
2017-May-14 22:30N 43°43' E 008°30'713.0
2017-May-14 22:00N 43°41' E 008°21'2012.8
2017-May-14 20:25N 43°34' E 007°55'512.3
2017-May-14 20:00N 43°33' E 007°48'612.2
2017-May-14 19:29N 43°31' E 007°39'612.5
2017-May-14 19:00N 43°30' E 007°31'612.7
2017-May-14 18:30N 43°29' E 007°23'712.8
2017-May-14 17:59N 43°29' E 007°14'613.0
2017-May-14 17:30N 43°28' E 007°05'4 9.0
2017-May-14 17:00N 43°31' E 006°60'2 3.0
2017-May-14 16:31N 43°32' E 007°01'0 0.0
2017-May-14 16:00N 43°32' E 007°01'0 0.0
2017-May-14 15:30N 43°32' E 007°01'0 0.0
2017-May-14 15:01N 43°32' E 007°01'0 0.0
2017-May-14 14:25N 43°32' E 007°01'0 0.0
2017-May-14 13:25N 43°32' E 007°01'0 0.0
2017-May-14 12:54N 43°32' E 007°01'0 0.0
2017-May-14 12:31N 43°32' E 007°01'0 0.0
2017-May-14 12:01N 43°32' E 007°01'0 0.0
2017-May-14 11:28N 43°32' E 007°01'0 0.0
2017-May-14 11:01N 43°32' E 007°01'0 0.0
2017-May-14 10:31N 43°32' E 007°01'0 0.0
2017-May-14 09:46N 43°32' E 007°01'0 0.0
2017-May-14 09:27N 43°32' E 007°01'0 0.0
2017-May-14 09:01N 43°32' E 007°01'0 0.0
2017-May-14 08:31N 43°32' E 007°01'0 0.0
2017-May-14 07:58N 43°32' E 007°01'0 0.0
2017-May-14 07:30N 43°32' E 007°01'0 0.0
2017-May-14 07:00N 43°32' E 007°01'0 0.0
2017-May-14 06:24N 43°32' E 007°01'0 0.1
2017-May-14 05:58N 43°32' E 007°01'0 0.1
2017-May-14 05:30N 43°32' E 007°01'2 4.5
2017-May-14 05:01N 43°30' E 007°00'7216.6
2017-May-14 00:41N 42°39' E 005°50'3718.5
2017-May-13 22:42N 42°21' E 005°07'13622.2
2017-May-13 16:36N 41°18' E 002°26'419.3
2017-May-13 16:23N 41°16' E 002°21'616.8
2017-May-13 16:00N 41°15' E 002°13'  

Dump ship's entire track history